OHDAC EFRO-EFRO

Flight info

Callsign OHDAC
Flight time 0h 17m
Altitude 2500
Route ROAP
Aircraft DA42/L-SBDGRY/S

Departure

Time 2026-04-28 16:31
Airport Rovaniemi Airport (EFRO)

Arrival

Time 2026-04-28 16:48
Airport Rovaniemi Airport (EFRO)
Time Latitude Longitude Altitude Speed Heading
2026-04-28 16:04 66.55932 25.83273 641 ft 0 kts 169°
2026-04-28 16:20 66.55927 25.83279 641 ft 3 kts 130°
2026-04-28 16:20 66.55938 25.83277 641 ft 5 kts 324°
2026-04-28 16:21 66.55962 25.83258 641 ft 5 kts 351°
2026-04-28 16:21 66.56003 25.83219 641 ft 6 kts 281°
2026-04-28 16:21 66.55995 25.83113 641 ft 0 kts 257°
2026-04-28 16:22 66.55988 25.83036 641 ft 8 kts 260°
2026-04-28 16:22 66.55975 25.82878 641 ft 10 kts 260°
2026-04-28 16:22 66.55963 25.82708 642 ft 9 kts 265°
2026-04-28 16:22 66.55953 25.82541 642 ft 10 kts 271°
2026-04-28 16:23 66.55978 25.82405 643 ft 6 kts 313°
2026-04-28 16:23 66.55981 25.82397 643 ft 0 kts 310°
2026-04-28 16:30 66.55983 25.82393 643 ft 3 kts 314°
2026-04-28 16:30 66.56014 25.82293 643 ft 10 kts 310°
2026-04-28 16:30 66.56066 25.82245 642 ft 4 kts 37°
2026-04-28 16:30 66.56066 25.82246 642 ft 0 kts 38°
2026-04-28 16:31 66.56098 25.82303 640 ft 28 kts 34°
2026-04-28 16:31 66.56419 25.82913 675 ft 78 kts 38°
2026-04-28 16:31 66.56837 25.83884 1009 ft 83 kts 38°
2026-04-28 16:31 66.57219 25.84979 1468 ft 81 kts 37°
2026-04-28 16:32 66.57686 25.85578 1872 ft 76 kts
2026-04-28 16:32 66.58726 25.84762 2546 ft 91 kts 344°
2026-04-28 16:32 66.59389 25.84013 2554 ft 114 kts 339°
2026-04-28 16:33 66.60108 25.83075 2456 ft 120 kts 337°
2026-04-28 16:33 66.60580 25.82424 2509 ft 113 kts 339°
2026-04-28 16:33 66.61534 25.81455 2492 ft 109 kts 343°
2026-04-28 16:33 66.62190 25.80472 2431 ft 117 kts 322°
2026-04-28 16:34 66.62535 25.78625 2514 ft 124 kts 286°
2026-04-28 16:34 66.62283 25.76365 2425 ft 146 kts 243°
2026-04-28 16:34 66.61605 25.74445 2468 ft 145 kts 234°
2026-04-28 16:34 66.60917 25.72663 2543 ft 143 kts 232°
2026-04-28 16:35 66.60207 25.70846 2478 ft 148 kts 232°
2026-04-28 16:35 66.59511 25.68990 2514 ft 143 kts 234°
2026-04-28 16:35 66.58853 25.67146 2480 ft 144 kts 236°
2026-04-28 16:35 66.58203 25.65227 2440 ft 144 kts 237°
2026-04-28 16:36 66.57552 25.63326 2419 ft 143 kts 236°
2026-04-28 16:36 66.56894 25.61528 2513 ft 136 kts 233°
2026-04-28 16:36 66.56242 25.59796 2513 ft 139 kts 234°
2026-04-28 16:36 66.55577 25.58008 2524 ft 140 kts 234°
2026-04-28 16:37 66.54898 25.56224 2547 ft 140 kts 232°
2026-04-28 16:37 66.54226 25.54472 2549 ft 140 kts 233°
2026-04-28 16:37 66.53540 25.52697 2495 ft 144 kts 232°
2026-04-28 16:38 66.52156 25.49090 2466 ft 142 kts 232°
2026-04-28 16:38 66.51363 25.47535 2417 ft 149 kts 208°
2026-04-28 16:38 66.50352 25.47003 2439 ft 147 kts 185°
2026-04-28 16:38 66.49364 25.46787 2490 ft 143 kts 181°
2026-04-28 16:39 66.48363 25.46667 2478 ft 144 kts 182°
2026-04-28 16:39 66.47356 25.46520 2480 ft 145 kts 182°
2026-04-28 16:39 66.46357 25.46346 2493 ft 146 kts 183°
2026-04-28 16:39 66.45345 25.46148 2504 ft 146 kts 183°
2026-04-28 16:40 66.44326 25.46128 2478 ft 147 kts 163°
2026-04-28 16:40 66.43457 25.47298 2463 ft 139 kts 134°
2026-04-28 16:40 66.42709 25.48756 2496 ft 136 kts 133°
2026-04-28 16:40 66.42057 25.50384 2535 ft 127 kts 111°
2026-04-28 16:41 66.41857 25.52364 2532 ft 116 kts 75°
2026-04-28 16:41 66.41938 25.54367 2535 ft 117 kts 72°
2026-04-28 16:41 66.42224 25.56125 2485 ft 107 kts 34°
2026-04-28 16:41 66.42824 25.57151 2512 ft 102 kts 32°
2026-04-28 16:42 66.43390 25.58223 2466 ft 104 kts 30°
2026-04-28 16:42 66.43954 25.59339 2495 ft 100 kts 32°
2026-04-28 16:42 66.44525 25.60431 2445 ft 104 kts 31°
2026-04-28 16:42 66.45083 25.61506 2522 ft 98 kts 31°
2026-04-28 16:43 66.45581 25.62492 2559 ft 89 kts 32°
2026-04-28 16:43 66.46074 25.63417 2490 ft 87 kts 30°
2026-04-28 16:43 66.46546 25.64317 2476 ft 83 kts 31°
2026-04-28 16:43 66.46988 25.65199 2494 ft 80 kts 30°
2026-04-28 16:44 66.47433 25.66014 2517 ft 80 kts 29°
2026-04-28 16:44 66.47891 25.66817 2535 ft 80 kts 26°
2026-04-28 16:44 66.48358 25.67609 2450 ft 82 kts 31°
2026-04-28 16:44 66.48803 25.68494 2339 ft 81 kts 31°
2026-04-28 16:45 66.49233 25.69353 2282 ft 78 kts 31°
2026-04-28 16:45 66.49660 25.70209 2212 ft 78 kts 31°
2026-04-28 16:45 66.50108 25.71027 2070 ft 82 kts 28°
2026-04-28 16:45 66.50576 25.71873 1893 ft 85 kts 29°
2026-04-28 16:46 66.51062 25.72702 1777 ft 84 kts 31°
2026-04-28 16:46 66.51527 25.73584 1622 ft 84 kts 29°
2026-04-28 16:46 66.51991 25.74546 1419 ft 88 kts 31°
2026-04-28 16:46 66.52467 25.75393 1337 ft 83 kts 28°
2026-04-28 16:47 66.52942 25.76256 1210 ft 88 kts 31°
2026-04-28 16:47 66.53412 25.77265 1113 ft 88 kts 33°
2026-04-28 16:47 66.53887 25.78205 1008 ft 88 kts 31°
2026-04-28 16:47 66.54373 25.79087 938 ft 85 kts 25°
2026-04-28 16:48 66.54847 25.79941 830 ft 84 kts 28°
2026-04-28 16:48 66.55314 25.80812 735 ft 83 kts 28°
2026-04-28 16:48 66.55733 25.81615 646 ft 59 kts 27°
2026-04-28 16:48 66.55989 25.82092 644 ft 42 kts 39°
2026-04-28 16:49 66.56207 25.82518 649 ft 76 kts 33°
2026-04-28 16:49 66.56739 25.83759 1098 ft 83 kts 33°
2026-04-28 16:49 66.57188 25.84597 1573 ft 75 kts 17°
2026-04-28 16:49 66.57517 25.84723 1880 ft 71 kts 357°
2026-04-28 16:50 66.57985 25.84263 2279 ft 73 kts 344°
2026-04-28 16:50 66.58685 25.83496 2584 ft 97 kts 344°
2026-04-28 16:50 66.59120 25.83021 2630 ft 105 kts 339°
2026-04-28 16:50 66.59638 25.81582 2598 ft 129 kts 296°
2026-04-28 16:51 66.59445 25.79242 2563 ft 154 kts 238°
2026-04-28 16:51 66.58719 25.77236 2567 ft 155 kts 233°
2026-04-28 16:51 66.57988 25.75251 2513 ft 156 kts 233°
2026-04-28 16:51 66.57251 25.73260 2511 ft 152 kts 233°
2026-04-28 16:52 66.56505 25.71376 2485 ft 151 kts 231°
2026-04-28 16:52 66.55771 25.69514 2447 ft 150 kts 232°
2026-04-28 16:52 66.55068 25.67636 2462 ft 143 kts 237°
2026-04-28 16:52 66.54403 25.65778 2449 ft 144 kts 234°
2026-04-28 16:53 66.53756 25.63937 2470 ft 142 kts 236°
2026-04-28 16:53 66.53087 25.62116 2475 ft 140 kts 233°
2026-04-28 16:53 66.52392 25.60376 2479 ft 141 kts 232°
2026-04-28 16:53 66.51699 25.58645 2498 ft 142 kts 232°
2026-04-28 16:54 66.51009 25.56901 2502 ft 143 kts 232°
2026-04-28 16:54 66.50301 25.55144 2501 ft 142 kts 234°
2026-04-28 16:54 66.49615 25.53334 2490 ft 143 kts 233°
2026-04-28 16:54 66.48925 25.51558 2498 ft 142 kts 232°
2026-04-28 16:55 66.48241 25.49755 2482 ft 143 kts 233°
2026-04-28 16:55 66.47546 25.47961 2484 ft 143 kts 232°
2026-04-28 16:55 66.46848 25.46211 2507 ft 141 kts 232°
2026-04-28 16:55 66.46173 25.44414 2489 ft 143 kts 233°
2026-04-28 16:56 66.45400 25.42870 2522 ft 146 kts 211°
2026-04-28 16:56 66.44390 25.42485 2466 ft 148 kts 165°
2026-04-28 16:56 66.43485 25.43517 2518 ft 138 kts 145°
2026-04-28 16:56 66.42641 25.44624 2496 ft 141 kts 146°
2026-04-28 16:57 66.41787 25.45822 2502 ft 141 kts 143°
2026-04-28 16:57 66.41002 25.47234 2504 ft 134 kts 118°
2026-04-28 16:57 66.40761 25.49248 2475 ft 117 kts 73°
2026-04-28 16:57 66.40835 25.51269 2508 ft 113 kts 69°
2026-04-28 16:58 66.41108 25.53012 2500 ft 108 kts 50°
2026-04-28 16:58 66.41560 25.54485 2497 ft 105 kts 40°
2026-04-28 16:58 66.42076 25.55762 2538 ft 103 kts 37°
2026-04-28 16:58 66.42616 25.56904 2545 ft 102 kts 31°
2026-04-28 16:59 66.43200 25.57910 2523 ft 102 kts 28°
2026-04-28 16:59 66.43781 25.58962 2500 ft 103 kts 32°
2026-04-28 16:59 66.44353 25.60062 2478 ft 104 kts 31°
2026-04-28 16:59 66.44931 25.61148 2498 ft 103 kts 31°
2026-04-28 17:00 66.45449 25.62186 2518 ft 93 kts 34°
2026-04-28 17:00 66.45929 25.63228 2472 ft 89 kts 33°
2026-04-28 17:00 66.46387 25.64240 2465 ft 86 kts 33°
2026-04-28 17:00 66.46846 25.65157 2442 ft 86 kts 30°
2026-04-28 17:01 66.47337 25.65984 2443 ft 83 kts 27°
2026-04-28 17:01 66.47818 25.66787 2440 ft 83 kts 28°
2026-04-28 17:01 66.48290 25.67594 2461 ft 81 kts 28°
2026-04-28 17:01 66.48743 25.68538 2300 ft 86 kts 33°
2026-04-28 17:02 66.49223 25.69349 2146 ft 83 kts 26°
2026-04-28 17:02 66.49670 25.70180 2050 ft 78 kts 32°
2026-04-28 17:02 66.50094 25.70917 1998 ft 74 kts 30°
2026-04-28 17:02 66.50502 25.71696 1965 ft 74 kts 28°
2026-04-28 17:03 66.51367 25.73351 1870 ft 81 kts 32°
2026-04-28 17:03 66.51817 25.74179 1733 ft 83 kts 29°
2026-04-28 17:03 66.52288 25.75066 1517 ft 87 kts 31°
2026-04-28 17:04 66.53231 25.76880 1230 ft 84 kts 29°
2026-04-28 17:04 66.53708 25.77774 1091 ft 87 kts 30°
2026-04-28 17:05 66.54699 25.79654 890 ft 89 kts 31°
2026-04-28 17:05 66.55194 25.80609 750 ft 86 kts 31°
2026-04-28 17:05 66.55641 25.81443 649 ft 68 kts 32°
2026-04-28 17:06 66.56026 25.82203 643 ft 9 kts 84°
2026-04-28 17:06 66.55996 25.82359 643 ft 12 kts 127°
2026-04-28 17:06 66.55968 25.82773 642 ft 14 kts 79°
2026-04-28 17:07 66.55987 25.83006 641 ft 14 kts 73°
2026-04-28 17:07 66.56002 25.83210 641 ft 6 kts 97°
2026-04-28 17:07 66.55964 25.83257 641 ft 8 kts 167°
2026-04-28 17:07 66.55941 25.83269 641 ft 0 kts 169°